Time;durP1;ratioP1;P1;durP2;ratioP2;P2;SDS_P1;SDS_P2;PMS_P1;PMS_P2;Temp;Humidity;BMP_temperature;BMP_pressure;BME280_temperature;BME280_humidity;BME280_pressure;Samples;Min_cycle;Max_cycle;Signal;HPM_P1;HPM_P2
2022/11/23 00:01:42;;;;;;;7.67;1.83;;;8.70;99.90;;;;;;5082627;28;20590;-56
2022/11/23 00:04:10;;;;;;;9.93;2.67;;;8.60;99.90;;;;;;5089292;28;20223;-56
2022/11/23 00:06:36;;;;;;;12.83;1.77;;;8.60;99.90;;;;;;5057663;28;20191;-56
2022/11/23 00:09:02;;;;;;;12.30;2.00;;;8.60;99.90;;;;;;5075977;28;20619;-56
2022/11/23 00:11:28;;;;;;;21.90;2.53;;;8.50;99.90;;;;;;5079921;28;20231;-56
2022/11/23 00:13:54;;;;;;;12.53;1.83;;;8.40;99.90;;;;;;5083081;28;20226;-56
2022/11/23 00:16:23;;;;;;;8.73;1.50;;;8.40;99.90;;;;;;5087592;28;20191;-56
2022/11/23 00:18:52;;;;;;;10.93;1.77;;;8.50;99.90;;;;;;5077133;28;20211;-56
2022/11/23 00:21:19;;;;;;;9.67;1.70;;;8.40;99.90;;;;;;5088410;28;20204;-56
2022/11/23 00:23:45;;;;;;;10.87;1.30;;;8.40;99.90;;;;;;5081208;28;20254;-56
2022/11/23 00:26:12;;;;;;;10.43;1.30;;;8.30;99.90;;;;;;5071677;28;20181;-57
2022/11/23 00:28:39;;;;;;;12.03;1.53;;;8.20;99.90;;;;;;5071840;28;20216;-56
2022/11/23 00:31:09;;;;;;;17.50;2.10;;;8.50;99.90;;;;;;5071338;28;20534;-56
2022/11/23 00:33:35;;;;;;;12.23;1.30;;;8.20;99.90;;;;;;5082641;28;20546;-56
2022/11/23 00:36:13;;;;;;;14.07;1.50;;;8.20;99.90;;;;;;5077302;28;20196;-56
2022/11/23 00:38:39;;;;;;;12.17;1.63;;;8.10;99.90;;;;;;5079731;28;20193;-56
2022/11/23 00:41:17;;;;;;;4.40;1.20;;;7.80;99.90;;;;;;5075756;28;20211;-56
2022/11/23 00:43:43;;;;;;;10.83;1.30;;;7.90;99.90;;;;;;5076993;28;20215;-56
2022/11/23 00:46:22;;;;;;;11.37;1.60;;;7.50;99.90;;;;;;5072762;28;20215;-56
2022/11/23 00:48:49;;;;;;;8.47;1.13;;;7.80;99.90;;;;;;5071585;28;20195;-56
2022/11/23 00:51:17;;;;;;;12.90;1.60;;;7.80;99.90;;;;;;5074808;28;20176;-56
2022/11/23 00:53:43;;;;;;;12.80;1.30;;;7.80;99.90;;;;;;5071552;28;20184;-57
2022/11/23 00:56:09;;;;;;;13.30;1.47;;;7.80;99.90;;;;;;5078562;28;20183;-56
2022/11/23 00:58:38;;;;;;;6.20;1.30;;;7.70;99.90;;;;;;5072118;28;20851;-56
2022/11/23 01:01:13;;;;;;;15.17;1.67;;;7.80;99.90;;;;;;5082495;28;20176;-56
2022/11/23 01:03:44;;;;;;;7.23;1.20;;;7.70;99.90;;;;;;5076319;28;20276;-56
2022/11/23 01:06:13;;;;;;;7.33;1.03;;;7.70;99.90;;;;;;5074045;28;20177;-56
2022/11/23 01:08:39;;;;;;;9.57;1.20;;;7.70;99.90;;;;;;5072434;28;20181;-56
2022/11/23 01:11:08;;;;;;;15.07;1.60;;;7.60;99.90;;;;;;5073487;28;20168;-57
2022/11/23 01:13:35;;;;;;;14.57;1.80;;;7.50;99.90;;;;;;5077862;28;20176;-56
2022/11/23 01:16:01;;;;;;;15.20;1.87;;;7.40;99.90;;;;;;5080804;28;20181;-56
2022/11/23 01:18:27;;;;;;;12.17;2.23;;;7.10;99.90;;;;;;5074517;28;20539;-56
2022/11/23 01:20:52;;;;;;;9.80;1.57;;;7.10;99.90;;;;;;5088023;28;20534;-56
2022/11/23 01:23:18;;;;;;;12.23;2.67;;;7.20;99.90;;;;;;5090521;28;20213;-56
2022/11/23 01:25:44;;;;;;;10.43;2.00;;;;;;;;;;5083121;28;20601;-57
2022/11/23 01:28:10;;;;;;;9.60;1.97;;;7.00;99.90;;;;;;5082226;28;20258;-56
2022/11/23 01:30:35;;;;;;;13.33;1.60;;;8.50;99.90;;;;;;5082171;28;20310;-57
2022/11/23 01:33:02;;;;;;;7.23;1.67;;;6.90;99.90;;;;;;5089300;28;20221;-56
2022/11/23 01:35:29;;;;;;;5.37;1.63;;;7.30;99.90;;;;;;5084976;28;20173;-56
2022/11/23 01:37:54;;;;;;;11.73;1.73;;;6.80;99.90;;;;;;5073122;28;20255;-56
2022/11/23 01:40:20;;;;;;;17.33;1.60;;;6.80;99.90;;;;;;5078755;28;20354;-56
2022/11/23 01:42:59;;;;;;;18.97;1.90;;;6.80;99.90;;;;;;5070315;28;20200;-56
2022/11/23 01:45:44;;;;;;;14.67;1.50;;;6.90;99.90;;;;;;5070930;28;20184;-56
2022/11/23 01:48:18;;;;;;;7.37;1.43;;;6.60;99.90;;;;;;5084588;28;20190;-56
2022/11/23 01:50:48;;;;;;;14.90;1.70;;;6.80;99.90;;;;;;5081133;28;20176;-56
2022/11/23 01:53:14;;;;;;;8.50;1.70;;;6.50;99.90;;;;;;5084829;28;20229;-56
2022/11/23 01:55:41;;;;;;;11.37;1.63;;;6.80;99.90;;;;;;5078466;28;20180;-57
2022/11/23 01:58:08;;;;;;;13.57;1.40;;;7.00;99.90;;;;;;5081923;28;20263;-56
2022/11/23 02:00:35;;;;;;;10.93;1.60;;;6.90;99.90;;;;;;5083539;28;20530;-56
2022/11/23 02:03:03;;;;;;;18.53;1.93;;;6.80;99.90;;;;;;5085042;28;20278;-57
2022/11/23 02:05:41;;;;;;;6.03;1.40;;;6.90;99.90;;;;;;5085707;28;20186;-56
2022/11/23 02:08:08;;;;;;;13.10;1.40;;;6.80;99.90;;;;;;5090386;28;20699;-56
2022/11/23 02:10:35;;;;;;;11.40;1.57;;;6.70;99.90;;;;;;5094048;28;20191;-56
2022/11/23 02:13:07;;;;;;;20.77;1.60;;;6.80;99.90;;;;;;5092051;28;20176;-56
2022/11/23 02:15:34;;;;;;;10.33;1.50;;;6.60;99.90;;;;;;5088955;28;20180;-56
2022/11/23 02:18:02;;;;;;;17.03;1.93;;;6.90;99.90;;;;;;5056124;28;20176;-56
2022/11/23 02:20:28;;;;;;;12.50;1.53;;;6.80;99.90;;;;;;5074135;28;20180;-56
2022/11/23 02:23:03;;;;;;;7.37;1.33;;;6.90;99.90;;;;;;5077701;28;20176;-56
2022/11/23 02:25:32;;;;;;;14.07;1.90;;;6.80;99.90;;;;;;5085600;28;20175;-57
2022/11/23 02:27:59;;;;;;;17.23;1.93;;;6.80;99.90;;;;;;5093694;28;20183;-56
2022/11/23 02:30:26;;;;;;;10.77;1.33;;;6.90;99.90;;;;;;5093897;28;20180;-57
2022/11/23 02:32:52;;;;;;;17.03;1.87;;;7.40;99.90;;;;;;5073727;28;20175;-56
2022/11/23 02:35:18;;;;;;;8.93;1.33;;;7.10;99.90;;;;;;5089309;28;20183;-56
2022/11/23 02:37:44;;;;;;;12.50;1.70;;;7.10;99.90;;;;;;5080734;28;20259;-57
2022/11/23 02:40:21;;;;;;;11.10;1.40;;;7.10;99.90;;;;;;5085071;28;20238;-57
2022/11/23 02:42:48;;;;;;;13.90;1.80;;;7.30;99.90;;;;;;5074391;28;20180;-56
2022/11/23 02:45:27;;;;;;;15.27;1.60;;;7.30;99.90;;;;;;5091976;28;20191;-57
2022/11/23 02:47:53;;;;;;;15.50;1.80;;;7.30;99.90;;;;;;5074434;28;20563;-56
2022/11/23 02:50:19;;;;;;;11.63;1.60;;;7.50;99.90;;;;;;5083886;28;20595;-56
2022/11/23 02:52:45;;;;;;;9.90;1.93;;;7.50;99.90;;;;;;5088622;28;20164;-56
2022/11/23 02:55:10;;;;;;;13.13;1.67;;;7.50;99.90;;;;;;5072836;28;20730;-56
2022/11/23 02:57:36;;;;;;;14.90;2.13;;;7.50;99.90;;;;;;5076166;28;20200;-57
2022/11/23 03:00:03;;;;;;;9.67;1.57;;;7.50;99.90;;;;;;5070296;28;20192;-56
2022/11/23 03:02:29;;;;;;;9.50;1.27;;;7.40;99.90;;;;;;5086861;28;20168;-56
2022/11/23 03:04:54;;;;;;;14.23;1.40;;;7.50;99.90;;;;;;5087956;28;20712;-58
2022/11/23 03:07:20;;;;;;;22.90;1.70;;;7.50;99.90;;;;;;5062197;28;20235;-57
2022/11/23 03:09:45;;;;;;;11.27;1.60;;;7.50;99.90;;;;;;5093244;28;20176;-57
2022/11/23 03:12:11;;;;;;;12.43;1.47;;;7.70;99.90;;;;;;5086569;28;20251;-58
2022/11/23 03:14:37;;;;;;;12.90;1.70;;;7.40;99.90;;;;;;5086776;28;20179;-58
2022/11/23 03:17:04;;;;;;;17.50;1.33;;;7.40;99.90;;;;;;5076722;28;20180;-57
2022/11/23 03:19:29;;;;;;;10.10;1.63;;;7.30;99.90;;;;;;5074433;28;20168;-57
2022/11/23 03:21:55;;;;;;;7.60;1.57;;;7.50;99.90;;;;;;5084036;28;20699;-58
2022/11/23 03:24:21;;;;;;;13.37;1.70;;;7.10;99.90;;;;;;5075294;28;20594;-57
2022/11/23 03:26:46;;;;;;;10.67;1.80;;;7.70;99.90;;;;;;5080229;28;20685;-57
2022/11/23 03:29:12;;;;;;;9.67;1.87;;;7.50;99.90;;;;;;5090158;28;20661;-58
2022/11/23 03:31:37;;;;;;;9.40;1.30;;;7.50;99.90;;;;;;5074821;28;20529;-57
2022/11/23 03:34:03;;;;;;;15.47;1.80;;;8.10;99.90;;;;;;5083998;28;20184;-57
2022/11/23 03:36:29;;;;;;;9.63;1.40;;;8.00;99.90;;;;;;5078205;28;20172;-57
2022/11/23 03:38:54;;;;;;;11.67;1.47;;;11.50;99.90;;;;;;5081080;28;20212;-57
2022/11/23 03:41:20;;;;;;;8.77;1.17;;;8.70;99.90;;;;;;5086138;28;20218;-57
2022/11/23 03:43:45;;;;;;;13.10;1.40;;;8.60;99.90;;;;;;5078351;28;20658;-57
2022/11/23 03:46:11;;;;;;;10.30;1.43;;;8.40;99.90;;;;;;5072237;28;20172;-57
2022/11/23 03:48:37;;;;;;;11.67;1.50;;;8.50;99.90;;;;;;5078744;28;20198;-58
2022/11/23 03:51:03;;;;;;;10.10;1.57;;;;;;;;;;5088335;28;20229;-57
2022/11/23 03:53:28;;;;;;;14.03;1.47;;;8.70;99.90;;;;;;5084119;28;20177;-57
2022/11/23 03:55:56;;;;;;;14.03;1.77;;;8.90;99.90;;;;;;5082300;28;20208;-57
2022/11/23 03:58:22;;;;;;;11.87;1.60;;;8.80;99.90;;;;;;5078916;28;20682;-56
2022/11/23 04:00:47;;;;;;;16.20;1.83;;;8.80;99.90;;;;;;5074022;28;20200;-56
2022/11/23 04:03:13;;;;;;;14.20;1.67;;;8.80;99.90;;;;;;5088356;28;20195;-56
2022/11/23 04:05:38;;;;;;;15.37;1.77;;;8.90;99.90;;;;;;5090553;28;20611;-55
2022/11/23 04:08:04;;;;;;;9.33;1.57;;;8.90;99.90;;;;;;5080357;28;20400;-55
2022/11/23 04:10:30;;;;;;;17.00;2.00;;;8.90;99.90;;;;;;5091914;28;20545;-55
2022/11/23 04:12:55;;;;;;;15.27;1.80;;;9.00;99.90;;;;;;5080804;28;20226;-55
2022/11/23 04:15:21;;;;;;;18.60;1.70;;;9.10;99.90;;;;;;5084176;28;20358;-55
2022/11/23 04:17:47;;;;;;;11.90;1.40;;;;;;;;;;5076370;28;20164;-55
2022/11/23 04:20:13;;;;;;;11.47;1.60;;;9.40;99.90;;;;;;5091755;28;20172;-57
2022/11/23 04:22:38;;;;;;;11.27;1.47;;;9.20;99.90;;;;;;5084874;28;20577;-56
2022/11/23 04:25:04;;;;;;;14.57;1.83;;;9.50;99.90;;;;;;5091559;28;20207;-55
2022/11/23 04:27:30;;;;;;;8.33;1.37;;;9.30;99.90;;;;;;5073234;28;20196;-55
2022/11/23 04:29:56;;;;;;;11.90;1.20;;;9.90;99.90;;;;;;5075248;28;20181;-55
2022/11/23 04:32:21;;;;;;;25.07;2.00;;;10.50;99.90;;;;;;5089127;28;20702;-56
2022/11/23 04:34:47;;;;;;;12.47;1.47;;;10.50;99.90;;;;;;5091439;28;20623;-56
2022/11/23 04:37:13;;;;;;;13.53;1.47;;;10.70;99.90;;;;;;5075485;28;20176;-57
2022/11/23 04:39:38;;;;;;;11.47;1.30;;;10.60;99.90;;;;;;5090430;28;20208;-56
2022/11/23 04:42:04;;;;;;;9.37;1.20;;;10.50;99.90;;;;;;5070978;28;20686;-55
2022/11/23 04:44:29;;;;;;;12.83;1.63;;;10.50;99.90;;;;;;5080371;28;20216;-55
2022/11/23 04:46:55;;;;;;;15.70;1.37;;;10.40;99.90;;;;;;5078620;28;20659;-55
2022/11/23 04:49:21;;;;;;;13.17;1.77;;;10.50;99.90;;;;;;5071150;28;20204;-55
2022/11/23 04:51:46;;;;;;;20.83;1.90;;;10.20;99.90;;;;;;5090240;28;20179;-55
2022/11/23 04:54:12;;;;;;;8.33;1.13;;;10.30;99.90;;;;;;5091132;28;20171;-55
2022/11/23 04:56:37;;;;;;;8.20;0.93;;;10.50;99.90;;;;;;5077991;28;20169;-55
2022/11/23 04:59:03;;;;;;;17.37;2.00;;;;;;;;;;5071171;28;20663;-57
2022/11/23 05:01:29;;;;;;;8.03;1.50;;;10.40;99.90;;;;;;5088322;28;20171;-55
2022/11/23 05:03:55;;;;;;;7.47;0.63;;;10.00;99.90;;;;;;5086777;28;20283;-55
2022/11/23 05:06:20;;;;;;;11.27;1.37;;;10.20;99.90;;;;;;5070848;28;20631;-58
2022/11/23 05:08:46;;;;;;;16.47;1.73;;;10.00;99.90;;;;;;5074711;28;20172;-55
2022/11/23 05:11:12;;;;;;;13.77;1.77;;;;;;;;;;5053496;28;20685;-55
2022/11/23 05:13:37;;;;;;;17.43;1.63;;;10.10;99.90;;;;;;5087324;28;20180;-55
2022/11/23 05:16:03;;;;;;;11.63;1.33;;;9.80;99.90;;;;;;5070884;28;20639;-56
2022/11/23 05:18:29;;;;;;;11.80;1.47;;;10.20;99.90;;;;;;5081779;28;20183;-55
2022/11/23 05:20:55;;;;;;;11.50;1.37;;;;;;;;;;5090765;28;20180;-56
2022/11/23 05:23:21;;;;;;;9.73;1.50;;;9.90;99.90;;;;;;5072898;28;20686;-56
2022/11/23 05:25:46;;;;;;;9.00;0.67;;;9.90;99.90;;;;;;5071781;28;20253;-55
2022/11/23 05:28:15;;;;;;;7.73;0.97;;;10.10;99.90;;;;;;5082766;28;20176;-56
2022/11/23 05:30:41;;;;;;;7.60;1.23;;;9.90;99.90;;;;;;5076991;28;20269;-55
2022/11/23 05:33:07;;;;;;;6.60;0.90;;;9.50;99.90;;;;;;5081753;28;20793;-55
2022/11/23 05:35:33;;;;;;;6.90;0.77;;;9.90;99.90;;;;;;5088776;28;20175;-55
2022/11/23 05:37:59;;;;;;;11.07;1.50;;;9.90;99.90;;;;;;5079220;28;20191;-56
2022/11/23 05:40:25;;;;;;;4.93;0.73;;;10.00;99.90;;;;;;5089881;28;20199;-56
2022/11/23 05:42:55;;;;;;;5.97;0.93;;;10.00;99.90;;;;;;5089001;28;20183;-56
2022/11/23 05:45:21;;;;;;;3.37;0.37;;;10.10;99.90;;;;;;5082987;28;20749;-56
2022/11/23 05:47:51;;;;;;;8.50;0.77;;;10.10;99.90;;;;;;5074658;28;20203;-56
2022/11/23 05:50:16;;;;;;;2.77;0.80;;;10.50;99.90;;;;;;5081802;28;20179;-56
2022/11/23 05:52:42;;;;;;;5.77;0.70;;;10.10;99.90;;;;;;5094745;28;20172;-56
2022/11/23 05:55:08;;;;;;;3.00;0.30;;;10.20;99.90;;;;;;5075023;28;20640;-56
2022/11/23 05:57:33;;;;;;;4.00;0.40;;;10.40;99.90;;;;;;5089052;28;20183;-56
2022/11/23 05:59:59;;;;;;;2.07;0.40;;;10.30;99.90;;;;;;5078501;28;20192;-56
2022/11/23 06:02:25;;;;;;;3.17;0.50;;;10.40;99.90;;;;;;5074538;28;20208;-56
2022/11/23 06:04:50;;;;;;;4.00;0.47;;;10.40;99.90;;;;;;5074377;28;20219;-56
2022/11/23 06:07:16;;;;;;;1.23;0.10;;;10.40;99.90;;;;;;5074447;28;20180;-56
2022/11/23 06:09:41;;;;;;;1.97;0.47;;;10.50;99.90;;;;;;5078869;28;20177;-56
2022/11/23 06:12:07;;;;;;;0.77;0.20;;;10.70;99.90;;;;;;5092808;28;20634;-56
2022/11/23 06:14:32;;;;;;;0.40;0.20;;;10.60;99.90;;;;;;5079157;28;20216;-56
2022/11/23 06:16:58;;;;;;;4.00;0.20;;;10.70;99.90;;;;;;5093734;28;20605;-56
2022/11/23 06:19:24;;;;;;;0.70;0.20;;;10.80;99.90;;;;;;5092826;28;20171;-56
2022/11/23 06:21:49;;;;;;;2.97;0.43;;;11.10;99.90;;;;;;5092787;28;20179;-56
2022/11/23 06:24:15;;;;;;;0.67;0.10;;;;;;;;;;5093908;28;20211;-57
2022/11/23 06:26:41;;;;;;;0.63;0.20;;;11.30;99.90;;;;;;5076740;28;20185;-56
2022/11/23 06:29:06;;;;;;;0.37;0.20;;;11.20;99.90;;;;;;5074491;28;20642;-55
2022/11/23 06:31:32;;;;;;;0.53;0.20;;;11.00;99.90;;;;;;5073831;28;20180;-56
2022/11/23 06:33:58;;;;;;;1.23;0.30;;;11.20;99.90;;;;;;5073738;28;20188;-56
2022/11/23 06:36:23;;;;;;;1.40;0.27;;;11.50;99.90;;;;;;5081948;28;20191;-58
2022/11/23 06:38:49;;;;;;;0.57;0.10;;;11.40;99.90;;;;;;5091405;28;20188;-58
2022/11/23 06:41:14;;;;;;;0.50;0.10;;;11.50;99.90;;;;;;5092794;28;20228;-56
2022/11/23 06:43:40;;;;;;;0.00;0.00;;;11.10;99.90;;;;;;5073415;28;20295;-56
2022/11/23 06:46:06;;;;;;;0.63;0.10;;;11.50;99.90;;;;;;5082347;28;20595;-56
2022/11/23 06:48:32;;;;;;;1.13;0.13;;;11.50;99.90;;;;;;5081493;28;20553;-59
2022/11/23 06:50:59;;;;;;;0.20;0.10;;;11.70;99.90;;;;;;5090898;28;20163;-56
2022/11/23 06:53:25;;;;;;;1.07;0.30;;;10.90;99.90;;;;;;5079801;28;20268;-56
2022/11/23 06:55:51;;;;;;;0.83;0.10;;;11.10;99.90;;;;;;5072044;28;20181;-56
2022/11/23 06:58:17;;;;;;;0.53;0.13;;;11.20;99.90;;;;;;5075863;28;20186;-56
2022/11/23 07:00:42;;;;;;;1.53;0.20;;;11.50;99.90;;;;;;5087019;28;20263;-56
2022/11/23 07:03:22;;;;;;;2.27;0.30;;;10.90;99.90;;;;;;5071412;28;20638;-56
2022/11/23 07:05:48;;;;;;;3.73;0.17;;;10.80;99.90;;;;;;5084536;28;20184;-56
2022/11/23 07:08:14;;;;;;;1.63;0.20;;;10.60;99.90;;;;;;5073665;28;20183;-56
2022/11/23 07:10:39;;;;;;;1.17;0.20;;;10.40;99.90;;;;;;5076059;28;20216;-56
2022/11/23 07:13:06;;;;;;;8.30;0.63;;;10.60;99.90;;;;;;5088071;28;20754;-56
2022/11/23 07:15:32;;;;;;;3.80;0.50;;;10.80;99.90;;;;;;5072782;28;20184;-56
2022/11/23 07:17:58;;;;;;;5.30;0.60;;;10.60;99.90;;;;;;5081580;28;20266;-56
2022/11/23 07:20:23;;;;;;;7.40;0.67;;;10.60;99.90;;;;;;5092826;28;20617;-56
2022/11/23 07:23:02;;;;;;;20.47;1.17;;;10.70;99.90;;;;;;5088605;28;20179;-55
2022/11/23 07:25:29;;;;;;;9.40;1.00;;;10.70;99.90;;;;;;5075286;28;20263;-55
2022/11/23 07:27:59;;;;;;;14.50;1.73;;;10.70;99.90;;;;;;5072684;28;20230;-55
2022/11/23 07:30:26;;;;;;;15.00;1.30;;;10.80;99.90;;;;;;5071036;28;20204;-56
2022/11/23 07:32:52;;;;;;;19.67;2.73;;;10.70;99.90;;;;;;5077853;28;20195;-55
2022/11/23 07:35:20;;;;;;;19.20;1.93;;;10.70;99.90;;;;;;5085701;28;20634;-55
2022/11/23 07:37:46;;;;;;;21.53;2.30;;;10.70;99.90;;;;;;5081766;28;20176;-55
2022/11/23 07:40:12;;;;;;;17.07;2.53;;;10.70;99.90;;;;;;5082204;28;20181;-55
2022/11/23 07:42:38;;;;;;;15.63;1.93;;;10.80;99.90;;;;;;5077687;28;20224;-55
2022/11/23 07:45:04;;;;;;;11.37;1.47;;;10.50;99.90;;;;;;5073118;28;20277;-55
2022/11/23 07:47:31;;;;;;;9.93;1.40;;;10.40;99.90;;;;;;5080185;28;20724;-56
2022/11/23 07:49:57;;;;;;;11.80;1.60;;;;;;;;;;5089623;28;20253;-57
2022/11/23 07:52:23;;;;;;;10.93;1.37;;;10.10;99.90;;;;;;5085207;28;20186;-56
2022/11/23 07:54:48;;;;;;;8.23;0.73;;;10.10;99.90;;;;;;5092383;28;20242;-56
2022/11/23 07:57:15;;;;;;;15.13;1.23;;;;;;;;;;5092239;28;20631;-57
2022/11/23 07:59:40;;;;;;;13.33;1.63;;;10.10;99.90;;;;;;5090480;28;20267;-57
2022/11/23 08:02:11;;;;;;;13.80;1.73;;;10.10;99.90;;;;;;5071952;28;20215;-57
2022/11/23 08:04:36;;;;;;;11.60;1.00;;;10.00;99.90;;;;;;5071801;28;20720;-57
2022/11/23 08:07:02;;;;;;;13.47;1.67;;;10.00;99.90;;;;;;5071328;28;20169;-57
2022/11/23 08:09:28;;;;;;;14.70;1.50;;;10.30;99.90;;;;;;5085224;28;20172;-57
2022/11/23 08:11:54;;;;;;;15.57;2.03;;;10.10;99.90;;;;;;5091768;28;20175;-57
2022/11/23 08:14:19;;;;;;;13.87;2.17;;;10.00;99.90;;;;;;5091662;28;20184;-57
2022/11/23 08:16:49;;;;;;;14.80;1.67;;;10.10;99.90;;;;;;5092039;28;20176;-57
2022/11/23 08:19:14;;;;;;;13.23;1.60;;;10.10;99.90;;;;;;5082941;28;20198;-57
2022/11/23 08:21:40;;;;;;;16.43;1.93;;;10.10;99.90;;;;;;5071721;28;20679;-58
2022/11/23 08:24:06;;;;;;;11.40;1.27;;;10.00;99.90;;;;;;5071641;28;20209;-57
2022/11/23 08:26:31;;;;;;;16.63;2.10;;;10.90;99.90;;;;;;5071063;28;20267;-57
2022/11/23 08:28:57;;;;;;;22.67;1.97;;;10.20;99.90;;;;;;5077832;28;20594;-57
2022/11/23 08:31:23;;;;;;;20.10;2.17;;;10.30;99.90;;;;;;5077646;28;20199;-57
2022/11/23 08:33:48;;;;;;;14.17;1.83;;;10.20;99.90;;;;;;5089690;28;20195;-57
2022/11/23 08:36:14;;;;;;;17.67;1.87;;;10.30;99.90;;;;;;5080831;28;20179;-57
2022/11/23 08:38:40;;;;;;;19.57;2.43;;;10.30;99.90;;;;;;5071384;28;20181;-57
2022/11/23 08:41:05;;;;;;;9.37;1.93;;;10.30;99.90;;;;;;5071153;28;20725;-57
2022/11/23 08:43:31;;;;;;;13.10;1.20;;;10.10;99.90;;;;;;5071158;28;20223;-57
2022/11/23 08:45:58;;;;;;;13.90;1.60;;;10.00;99.90;;;;;;5076957;28;20180;-57
2022/11/23 08:48:25;;;;;;;12.73;1.47;;;10.20;99.90;;;;;;5091155;28;20218;-58
2022/11/23 08:50:51;;;;;;;9.90;1.50;;;10.00;99.90;;;;;;5091067;28;20168;-57
2022/11/23 08:53:16;;;;;;;11.87;1.83;;;10.20;99.90;;;;;;5071113;28;20225;-57
2022/11/23 08:55:42;;;;;;;20.77;1.90;;;10.30;99.90;;;;;;5090501;28;20245;-55
2022/11/23 08:58:08;;;;;;;11.10;1.37;;;10.00;99.90;;;;;;5076571;28;20211;-59
2022/11/23 09:00:34;;;;;;;11.67;1.30;;;10.30;99.90;;;;;;5084326;28;20547;-58
2022/11/23 09:03:00;;;;;;;7.67;1.40;;;10.10;99.90;;;;;;5086958;28;20168;-58
2022/11/23 09:05:27;;;;;;;19.80;2.07;;;10.10;99.90;;;;;;5090245;28;20171;-58
2022/11/23 09:08:00;;;;;;;14.80;1.80;;;10.20;99.90;;;;;;5085253;28;20180;-58
2022/11/23 09:10:26;;;;;;;16.83;1.60;;;10.40;99.90;;;;;;5088471;28;20176;-58
2022/11/23 09:12:51;;;;;;;14.10;1.80;;;10.20;99.90;;;;;;5080922;28;20255;-58
2022/11/23 09:15:17;;;;;;;12.47;1.80;;;10.60;99.90;;;;;;5089035;28;20179;-58
2022/11/23 09:17:43;;;;;;;12.97;1.67;;;11.50;99.90;;;;;;5070766;28;20179;-58
2022/11/23 09:20:10;;;;;;;21.33;2.37;;;10.90;99.90;;;;;;5075503;28;20216;-58
2022/11/23 09:22:36;;;;;;;23.13;2.03;;;;;;;;;;5083234;28;20184;-57
2022/11/23 09:25:02;;;;;;;14.13;2.03;;;10.70;99.90;;;;;;5090371;28;20751;-57
2022/11/23 09:27:28;;;;;;;17.63;1.87;;;;;;;;;;5077040;28;20550;-57
2022/11/23 09:29:54;;;;;;;13.70;1.63;;;10.70;99.90;;;;;;5070715;28;20169;-57
2022/11/23 09:32:19;;;;;;;15.93;1.53;;;11.60;99.90;;;;;;5073364;28;20175;-58
2022/11/23 09:34:45;;;;;;;23.10;2.87;;;11.90;99.90;;;;;;5081296;28;20177;-56
2022/11/23 09:37:11;;;;;;;24.57;2.83;;;12.00;99.90;;;;;;5070669;28;20208;-57
2022/11/23 09:39:37;;;;;;;21.03;2.93;;;11.90;99.90;;;;;;5070783;28;20172;-57
2022/11/23 09:42:09;;;;;;;29.07;3.37;;;12.10;99.90;;;;;;5075772;28;20266;-57
2022/11/23 09:45:32;;;;;;;19.80;2.77;;;11.90;99.90;;;;;;5082440;28;20219;-57
2022/11/23 09:48:38;;;;;;;28.50;3.37;;;12.40;99.90;;;;;;4989100;28;20190;-57
2022/11/23 09:51:15;;;;;;;19.30;3.00;;;12.10;99.90;;;;;;4976936;28;20236;-57
2022/11/23 09:53:59;;;;;;;32.73;3.43;;;11.90;99.90;;;;;;5055932;28;20191;-57
2022/11/23 09:56:33;;;;;;;29.27;3.20;;;11.60;99.90;;;;;;5070592;28;20172;-57
2022/11/23 09:59:04;;;;;;;35.80;3.90;;;11.90;99.90;;;;;;5070522;28;20164;-57
2022/11/23 10:01:30;;;;;;;20.47;3.40;;;12.00;99.90;;;;;;5080362;28;20674;-54
2022/11/23 10:03:56;;;;;;;19.80;3.13;;;11.80;99.90;;;;;;5090363;28;20211;-54
2022/11/23 10:06:30;;;;;;;32.17;4.83;;;11.90;99.90;;;;;;5089724;28;20183;-54
2022/11/23 10:09:04;;;;;;;24.70;4.40;;;12.60;99.90;;;;;;5090302;28;20237;-55
2022/11/23 10:12:01;;;;;;;30.77;4.50;;;12.60;99.90;;;;;;5090496;28;20646;-54
2022/11/23 10:15:02;;;;;;;20.73;3.27;;;12.80;99.90;;;;;;5090181;28;20250;-54
2022/11/23 10:17:48;;;;;;;25.80;2.97;;;12.80;99.90;;;;;;5077530;28;20878;-55
2022/11/23 10:20:48;;;;;;;18.00;2.90;;;12.90;99.90;;;;;;5089493;28;20195;-54
2022/11/23 10:23:42;;;;;;;26.37;2.77;;;12.80;99.90;;;;;;5082815;28;20180;-55
2022/11/23 10:26:14;;;;;;;28.27;3.47;;;12.80;99.90;;;;;;5041264;28;20192;-55
2022/11/23 10:28:40;;;;;;;26.33;4.27;;;12.70;99.90;;;;;;5087326;28;20172;-55
2022/11/23 10:31:15;;;;;;;22.13;3.00;;;13.00;99.90;;;;;;5093210;28;20172;-54
2022/11/23 10:33:52;;;;;;;22.47;3.67;;;13.70;99.90;;;;;;5075722;28;20195;-54
2022/11/23 10:36:18;;;;;;;23.07;3.30;;;13.50;99.90;;;;;;5073626;28;20255;-54
2022/11/23 10:38:46;;;;;;;15.53;3.03;;;13.70;99.90;;;;;;5073985;28;20218;-54
2022/11/23 10:41:12;;;;;;;24.20;3.57;;;14.50;99.90;;;;;;5073380;28;20287;-55
2022/11/23 10:43:51;;;;;;;14.50;2.53;;;14.40;99.90;;;;;;5073481;28;20226;-55
2022/11/23 10:46:23;;;;;;;27.33;3.63;;;15.80;99.90;;;;;;5073440;28;20164;-54
2022/11/23 10:48:50;;;;;;;22.20;3.20;;;15.20;99.90;;;;;;5073594;28;20223;-55
2022/11/23 10:51:25;;;;;;;13.87;2.37;;;15.00;99.90;;;;;;5073486;28;20174;-55
2022/11/23 10:53:55;;;;;;;33.20;4.38;;;14.70;99.90;;;;;;5092255;28;20711;-55
2022/11/23 10:56:21;;;;;;;20.10;2.83;;;15.10;99.90;;;;;;5093609;28;20176;-56
2022/11/23 10:58:47;;;;;;;17.00;2.47;;;15.10;99.90;;;;;;5093267;28;20658;-56
2022/11/23 11:01:15;;;;;;;30.20;4.10;;;15.50;99.90;;;;;;5079244;28;20188;-55
2022/11/23 11:03:41;;;;;;;14.88;3.25;;;15.80;99.90;;;;;;5085378;28;20667;-56
2022/11/23 11:06:08;;;;;;;30.92;3.58;;;14.30;99.90;;;;;;5076943;28;20202;-55
2022/11/23 11:08:47;;;;;;;17.77;2.92;;;15.10;99.90;;;;;;5073333;28;20184;-56
2022/11/23 11:11:28;;;;;;;21.60;2.72;;;15.80;99.90;;;;;;5071463;28;20635;-56
2022/11/23 11:14:24;;;;;;;22.58;3.15;;;17.30;99.90;;;;;;5071670;28;20700;-56
2022/11/23 11:16:54;;;;;;;15.00;2.45;;;17.00;99.90;;;;;;5070588;28;20180;-56
2022/11/23 11:19:27;;;;;;;16.75;2.35;;;17.20;99.90;;;;;;5072576;28;20173;-56
2022/11/23 11:21:53;;;;;;;15.82;2.33;;;19.10;99.90;;;;;;5072590;28;20298;-55
2022/11/23 11:24:32;;;;;;;17.15;2.50;;;19.60;99.90;;;;;;5072307;28;20710;-55
2022/11/23 11:27:11;;;;;;;11.65;1.95;;;18.10;99.90;;;;;;5069043;28;20171;-56
2022/11/23 11:29:49;;;;;;;13.48;2.15;;;18.00;99.90;;;;;;5069465;28;20192;-56
2022/11/23 11:32:25;;;;;;;12.40;1.90;;;18.20;99.90;;;;;;5072907;28;20168;-56
2022/11/23 11:35:09;;;;;;;14.60;2.65;;;16.20;99.90;;;;;;5072633;28;20180;-55
2022/11/23 11:37:46;;;;;;;15.27;2.20;;;14.80;99.90;;;;;;5072727;28;20271;-55
2022/11/23 11:40:12;;;;;;;22.35;2.83;;;;;;;;;;5072439;28;20172;-56
2022/11/23 11:43:12;;;;;;;15.50;2.80;;;17.70;99.90;;;;;;5071749;28;20224;-56
2022/11/23 11:45:43;;;;;;;18.95;2.33;;;18.50;99.90;;;;;;5071782;28;20207;-56
2022/11/23 11:48:21;;;;;;;19.08;1.92;;;19.40;99.90;;;;;;5072372;28;20164;-56
2022/11/23 11:50:49;;;;;;;18.13;2.85;;;19.60;99.90;;;;;;5072267;28;20168;-56
2022/11/23 11:53:21;;;;;;;14.32;2.97;;;20.90;99.90;;;;;;5072235;28;20164;-56
2022/11/23 11:56:24;;;;;;;15.02;3.05;;;21.70;99.90;;;;;;5072190;28;20184;-56
2022/11/23 11:59:12;;;;;;;16.52;2.58;;;19.50;99.90;;;;;;5063714;28;20267;-56
2022/11/23 12:02:06;;;;;;;14.23;2.85;;;19.80;99.90;;;;;;5072085;28;20161;-56
2022/11/23 12:05:04;;;;;;;12.43;2.80;;;21.50;99.90;;;;;;5087633;28;20211;-56
2022/11/23 12:07:48;;;;;;;5.85;1.55;;;20.60;99.90;;;;;;5084327;28;20290;-56
2022/11/23 12:10:23;;;;;;;15.63;2.45;;;20.90;99.90;;;;;;5092036;28;20160;-56
2022/11/23 12:12:49;;;;;;;13.15;2.40;;;20.40;99.90;;;;;;5092051;28;20168;-56
2022/11/23 12:15:27;;;;;;;19.90;3.25;;;20.10;99.90;;;;;;5092117;28;20261;-56
2022/11/23 12:18:30;;;;;;;16.13;2.67;;;19.90;99.90;;;;;;5092126;28;20168;-56
2022/11/23 12:21:33;;;;;;;10.82;2.22;;;21.40;99.90;;;;;;5091935;28;20657;-56
2022/11/23 12:24:36;;;;;;;13.98;2.45;;;21.80;99.90;;;;;;5091712;28;20222;-56
2022/11/23 12:27:14;;;;;;;13.32;2.80;;;20.20;99.90;;;;;;5091730;28;20191;-56
2022/11/23 12:30:15;;;;;;;9.05;2.83;;;20.40;99.90;;;;;;5083799;28;20259;-56
2022/11/23 12:33:06;;;;;;;16.95;2.97;;;21.60;99.90;;;;;;5042577;28;20192;-56
2022/11/23 12:36:02;;;;;;;12.45;2.63;;;21.40;99.90;;;;;;5071547;28;20177;-56
2022/11/23 12:38:47;;;;;;;17.30;3.05;;;20.50;99.90;;;;;;5071232;28;20734;-56
2022/11/23 12:41:15;;;;;;;11.68;2.35;;;20.50;99.90;;;;;;5071366;28;20705;-56
2022/11/23 12:43:47;;;;;;;14.20;2.15;;;20.70;99.90;;;;;;5071135;28;20212;-56
2022/11/23 12:46:19;;;;;;;7.72;1.70;;;20.50;99.90;;;;;;5071321;28;20240;-56
2022/11/23 12:49:04;;;;;;;12.55;2.70;;;20.20;99.90;;;;;;5070589;28;20172;-56
2022/11/23 12:51:54;;;;;;;15.05;2.42;;;20.80;99.90;;;;;;5071036;28;20172;-56
2022/11/23 12:54:29;;;;;;;17.70;3.10;;;20.90;99.90;;;;;;5071005;28;20204;-56
2022/11/23 12:57:11;;;;;;;17.15;2.13;;;19.80;99.90;;;;;;5053196;28;20521;-56
2022/11/23 13:00:27;;;;;;;17.95;2.55;;;18.40;99.90;;;;;;5073369;28;20180;-56
2022/11/23 13:02:55;;;;;;;15.50;2.85;;;18.20;99.90;;;;;;5048090;28;20705;-56